createdAt,value
2023-02-11T00:00:44.981Z,28.30
2023-02-11T00:03:12.305Z,23.93
2023-02-11T00:05:39.535Z,24.07
2023-02-11T00:08:08.235Z,25.60
2023-02-11T00:10:35.464Z,21.83
2023-02-11T00:13:02.794Z,24.47
2023-02-11T00:15:30.142Z,24.20
2023-02-11T00:17:57.381Z,26.70
2023-02-11T00:20:24.583Z,21.70
2023-02-11T00:22:51.845Z,25.03
2023-02-11T00:25:20.467Z,28.33
2023-02-11T00:27:47.672Z,19.90
2023-02-11T00:30:14.960Z,20.77
2023-02-11T00:32:42.373Z,22.80
2023-02-11T00:35:09.712Z,22.10
2023-02-11T00:37:37.056Z,20.90
2023-02-11T00:40:06.953Z,21.70
2023-02-11T00:42:35.624Z,21.63
2023-02-11T00:45:03.506Z,22.80
2023-02-11T00:47:30.764Z,19.93
2023-02-11T00:49:57.963Z,23.33
2023-02-11T00:52:27.756Z,22.23
2023-02-11T00:54:54.998Z,19.67
2023-02-11T00:57:22.469Z,16.90
2023-02-11T00:59:51.926Z,23.77
2023-02-11T01:02:19.296Z,20.03
2023-02-11T01:04:46.506Z,22.67
2023-02-11T01:07:13.894Z,23.37
2023-02-11T01:09:41.106Z,21.83
2023-02-11T01:12:08.426Z,21.77
2023-02-11T01:14:35.756Z,24.30
2023-02-11T01:17:05.958Z,19.77
2023-02-11T01:19:33.416Z,23.20
2023-02-11T01:22:00.656Z,24.50
2023-02-11T01:24:28.036Z,22.60
2023-02-11T01:26:55.345Z,21.20
2023-02-11T01:29:25.159Z,25.30
2023-02-11T01:31:55.112Z,18.77
2023-02-11T01:34:23.876Z,22.17
2023-02-11T01:36:51.129Z,21.27
2023-02-11T01:39:18.451Z,22.23
2023-02-11T01:41:46.983Z,18.97
2023-02-11T01:44:29.154Z,22.53
2023-02-11T01:46:56.449Z,24.70
2023-02-11T01:49:30.349Z,24.47
2023-02-11T01:52:03.364Z,22.90
2023-02-11T01:54:33.951Z,20.50
2023-02-11T01:57:04.621Z,24.13
2023-02-11T01:59:35.937Z,20.60
2023-02-11T02:02:08.034Z,23.57
2023-02-11T02:04:44.302Z,23.63
2023-02-11T02:07:19.290Z,22.67
2023-02-11T02:09:52.901Z,18.20
2023-02-11T02:12:20.175Z,22.20
2023-02-11T02:14:47.406Z,20.00
2023-02-11T02:17:26.528Z,21.80
2023-02-11T02:20:31.548Z,23.53
2023-02-11T02:23:17.433Z,18.40
2023-02-11T02:26:13.751Z,19.90
2023-02-11T02:29:18.358Z,21.17
2023-02-11T02:32:33.719Z,19.63
2023-02-11T02:35:11.628Z,19.70
2023-02-11T02:37:47.844Z,21.10
2023-02-11T02:40:20.476Z,19.10
2023-02-11T02:42:49.210Z,17.10
2023-02-11T02:45:16.731Z,19.90
2023-02-11T02:47:44.039Z,21.40
2023-02-11T02:50:17.206Z,16.90
2023-02-11T02:52:52.951Z,16.37
2023-02-11T02:55:45.326Z,18.10
2023-02-11T02:58:39.958Z,20.57
2023-02-11T03:01:16.407Z,19.20
2023-02-11T03:03:50.760Z,18.87
2023-02-11T03:06:25.534Z,21.10
2023-02-11T03:08:57.088Z,17.63
2023-02-11T03:11:25.803Z,19.10
2023-02-11T03:13:55.181Z,19.53
2023-02-11T03:16:26.892Z,19.53
2023-02-11T03:19:02.945Z,18.40
2023-02-11T03:21:33.460Z,17.67
2023-02-11T03:24:05.807Z,16.93
2023-02-11T03:26:38.792Z,18.13
2023-02-11T03:29:14.370Z,18.70
2023-02-11T03:31:51.086Z,13.93
2023-02-11T03:34:23.414Z,18.30
2023-02-11T03:36:57.064Z,15.47
2023-02-11T03:39:29.437Z,17.63
2023-02-11T03:41:59.978Z,17.60
2023-02-11T03:44:32.670Z,20.47
2023-02-11T03:47:02.833Z,16.87
2023-02-11T03:49:33.177Z,15.87
2023-02-11T03:52:03.332Z,18.03
2023-02-11T03:54:31.546Z,17.30
2023-02-11T03:57:01.522Z,10.07
2023-02-11T03:59:29.462Z,15.97
2023-02-11T04:01:56.967Z,15.87
2023-02-11T04:04:24.170Z,15.70
2023-02-11T04:06:51.526Z,14.87
2023-02-11T04:09:20.088Z,16.50
2023-02-11T04:11:47.342Z,17.23
2023-02-11T04:14:14.579Z,14.60
2023-02-11T04:16:41.918Z,12.00
2023-02-11T04:19:09.151Z,16.73
2023-02-11T04:21:36.451Z,16.03
2023-02-11T04:24:04.133Z,16.53
2023-02-11T04:26:33.280Z,16.57
2023-02-11T04:29:00.587Z,16.83
2023-02-11T04:31:27.968Z,15.27
2023-02-11T04:33:55.991Z,11.77
2023-02-11T04:36:23.305Z,9.93
2023-02-11T04:38:50.665Z,11.07
2023-02-11T04:41:17.973Z,16.33
2023-02-11T04:43:46.642Z,16.40
2023-02-11T04:46:13.914Z,17.87
2023-02-11T04:48:41.177Z,17.13
2023-02-11T04:51:09.133Z,16.87
2023-02-11T04:53:36.332Z,15.23
2023-02-11T04:56:03.939Z,16.27
2023-02-11T04:58:31.281Z,11.60
2023-02-11T05:01:07.268Z,16.80
2023-02-11T05:03:35.343Z,15.73
2023-02-11T05:06:02.708Z,16.50
2023-02-11T05:08:30.196Z,17.37
2023-02-11T05:10:57.630Z,15.57
2023-02-11T05:13:24.925Z,17.37
2023-02-11T05:15:52.466Z,15.87
2023-02-11T05:18:21.598Z,17.70
2023-02-11T05:20:49.008Z,15.17
2023-02-11T05:23:16.256Z,15.13
2023-02-11T05:25:43.565Z,15.73
2023-02-11T05:28:10.791Z,13.40
2023-02-11T05:30:38.190Z,13.27
2023-02-11T05:33:05.473Z,14.20
2023-02-11T05:35:34.003Z,14.83
2023-02-11T05:38:01.217Z,16.77
2023-02-11T05:40:28.489Z,15.30
2023-02-11T05:42:55.768Z,16.83
2023-02-11T05:45:22.986Z,13.23
2023-02-11T05:47:50.234Z,14.83
2023-02-11T05:50:17.526Z,13.37
2023-02-11T05:52:46.150Z,15.70
2023-02-11T05:55:13.733Z,14.50
2023-02-11T05:57:41.183Z,13.33
2023-02-11T06:00:10.317Z,15.37
2023-02-11T06:02:40.540Z,15.93
2023-02-11T06:05:08.559Z,16.47
2023-02-11T06:07:35.939Z,16.30
2023-02-11T06:10:05.326Z,17.37
2023-02-11T06:12:32.631Z,17.77
2023-02-11T06:14:59.822Z,17.27
2023-02-11T06:17:27.088Z,14.93
2023-02-11T06:19:54.300Z,17.20
2023-02-11T06:22:21.540Z,16.60
2023-02-11T06:25:00.798Z,14.77
2023-02-11T06:27:30.429Z,14.67
2023-02-11T06:29:57.770Z,19.03
2023-02-11T06:35:14.374Z,16.07
2023-02-11T06:37:42.595Z,15.30
2023-02-11T06:40:10.296Z,18.37
2023-02-11T06:42:39.537Z,17.90
2023-02-11T06:45:07.915Z,16.00
2023-02-11T06:47:35.093Z,16.07
2023-02-11T06:50:02.484Z,14.07
2023-02-11T06:52:29.884Z,18.90
2023-02-11T06:54:57.076Z,16.43
2023-02-11T06:57:24.384Z,17.50
2023-02-11T06:59:53.028Z,17.27
2023-02-11T07:02:21.130Z,19.93
2023-02-11T07:04:48.826Z,18.30
2023-02-11T07:07:16.071Z,18.60
2023-02-11T07:09:43.571Z,19.97
2023-02-11T07:12:10.801Z,17.20
2023-02-11T07:14:38.420Z,19.90
2023-02-11T07:17:07.010Z,20.57
2023-02-11T07:19:34.331Z,21.07
2023-02-11T07:22:01.592Z,17.03
2023-02-11T07:24:28.868Z,17.20
2023-02-11T07:26:56.275Z,16.27
2023-02-11T07:29:23.642Z,17.93
2023-02-11T07:31:51.015Z,17.07
2023-02-11T07:34:19.758Z,37.77
2023-02-11T07:36:47.042Z,22.73
2023-02-11T07:39:14.551Z,17.33
2023-02-11T07:41:41.846Z,17.20
2023-02-11T07:44:09.474Z,16.30
2023-02-11T07:46:36.817Z,17.70
2023-02-11T07:49:04.207Z,17.30
2023-02-11T07:51:32.756Z,15.20
2023-02-11T07:54:00.256Z,16.83
2023-02-11T07:56:28.656Z,19.60
2023-02-11T07:58:59.017Z,18.40
2023-02-11T08:01:27.187Z,14.10
2023-02-11T08:03:55.665Z,15.20
2023-02-11T08:06:25.676Z,15.13
2023-02-11T08:08:54.436Z,15.67
2023-02-11T08:11:24.149Z,13.00
2023-02-11T08:13:52.470Z,16.83
2023-02-11T08:16:21.990Z,18.93
2023-02-11T08:18:50.646Z,18.40
2023-02-11T08:21:18.909Z,16.30
2023-02-11T08:23:46.367Z,16.80
2023-02-11T08:26:18.056Z,15.30
2023-02-11T08:28:47.509Z,19.37
2023-02-11T08:31:16.744Z,16.73
2023-02-11T08:33:44.574Z,15.43
2023-02-11T08:36:13.554Z,14.60
2023-02-11T08:38:40.862Z,14.50
2023-02-11T08:41:08.328Z,15.33
2023-02-11T08:43:37.591Z,15.07
2023-02-11T08:46:05.153Z,17.87
2023-02-11T08:48:32.490Z,15.90
2023-02-11T08:50:59.869Z,16.77
2023-02-11T08:53:27.199Z,17.10
2023-02-11T08:55:55.595Z,14.27
2023-02-11T08:58:23.438Z,16.13
2023-02-11T09:00:52.678Z,17.50
2023-02-11T09:03:20.205Z,16.20
2023-02-11T09:05:49.067Z,17.87
2023-02-11T09:08:16.964Z,13.83
2023-02-11T09:10:44.465Z,14.40
2023-02-11T09:13:12.051Z,16.37
2023-02-11T09:15:39.511Z,14.40
2023-02-11T09:18:08.282Z,15.97
2023-02-11T09:20:35.578Z,16.37
2023-02-11T09:23:02.904Z,12.50
2023-02-11T09:25:30.109Z,16.83
2023-02-11T09:27:57.430Z,18.03
2023-02-11T09:30:24.724Z,16.70
2023-02-11T09:32:52.010Z,17.40
2023-02-11T09:35:20.808Z,17.70
2023-02-11T09:37:48.154Z,14.37
2023-02-11T09:40:16.238Z,13.40
2023-02-11T09:42:50.671Z,17.63
2023-02-11T09:45:20.385Z,18.20
2023-02-11T09:47:55.386Z,18.47
2023-02-11T09:50:29.172Z,17.87
2023-02-11T09:53:01.052Z,16.50
2023-02-11T09:55:31.697Z,14.73
2023-02-11T09:57:58.942Z,18.00
2023-02-11T10:00:30.912Z,17.20
2023-02-11T10:03:28.332Z,16.90
2023-02-11T10:06:19.640Z,15.40
2023-02-11T10:08:59.550Z,17.40
2023-02-11T10:11:34.350Z,19.13
2023-02-11T10:14:13.391Z,16.73
2023-02-11T10:16:55.585Z,17.73
2023-02-11T10:19:36.537Z,18.20
2023-02-11T10:22:12.158Z,17.50
2023-02-11T10:24:53.903Z,18.20
2023-02-11T10:27:30.992Z,14.10
2023-02-11T10:30:04.008Z,17.80
2023-02-11T10:32:38.766Z,15.03
2023-02-11T10:35:14.618Z,18.43
2023-02-11T10:37:44.630Z,14.20
2023-02-11T10:40:17.325Z,13.23
2023-02-11T10:42:47.846Z,16.50
2023-02-11T10:45:22.425Z,17.73
2023-02-11T10:47:49.735Z,16.23
2023-02-11T10:50:25.697Z,18.80
2023-02-11T10:53:12.376Z,18.13
2023-02-11T10:55:48.599Z,17.57
2023-02-11T10:58:24.967Z,16.30
2023-02-11T11:00:55.086Z,19.57
2023-02-11T11:03:25.284Z,14.97
2023-02-11T11:05:57.300Z,17.73
2023-02-11T11:08:40.498Z,18.40
2023-02-11T11:11:10.169Z,16.50
2023-02-11T11:13:38.613Z,15.03
2023-02-11T11:16:24.976Z,13.73
2023-02-11T11:18:54.423Z,16.73
2023-02-11T11:21:24.155Z,15.50
2023-02-11T11:23:56.547Z,12.23
2023-02-11T11:26:25.586Z,15.93
2023-02-11T11:28:58.904Z,13.90
2023-02-11T11:31:30.399Z,14.30
2023-02-11T11:34:00.440Z,13.93
2023-02-11T11:36:36.507Z,12.40
2023-02-11T11:39:20.280Z,14.67
2023-02-11T11:41:56.726Z,15.87
2023-02-11T11:44:30.988Z,16.13
2023-02-11T11:47:26.459Z,12.77
2023-02-11T11:50:26.537Z,11.63
2023-02-11T11:52:59.724Z,11.97
2023-02-11T11:55:35.074Z,14.87
2023-02-11T11:58:02.417Z,14.47
2023-02-11T12:00:36.190Z,14.47
2023-02-11T12:03:57.849Z,14.57
2023-02-11T12:06:39.324Z,14.80
2023-02-11T12:09:18.173Z,14.20
2023-02-11T12:12:01.954Z,12.27
2023-02-11T12:14:38.534Z,13.07
2023-02-11T12:17:18.722Z,13.30
2023-02-11T12:19:59.613Z,12.00
2023-02-11T12:22:41.513Z,9.13
2023-02-11T12:25:23.668Z,11.60
2023-02-11T12:28:01.388Z,10.90
2023-02-11T12:30:49.793Z,9.83
2023-02-11T12:33:31.494Z,9.27
2023-02-11T12:36:05.863Z,11.00
2023-02-11T12:38:47.058Z,9.83
2023-02-11T12:41:25.055Z,11.83
2023-02-11T12:43:54.025Z,9.63
2023-02-11T12:46:37.592Z,9.57
2023-02-11T12:49:31.535Z,9.17
2023-02-11T12:52:09.249Z,9.87
2023-02-11T12:54:42.243Z,11.17
2023-02-11T12:57:17.937Z,10.73
2023-02-11T12:59:57.183Z,10.13
2023-02-11T13:02:33.964Z,9.23
2023-02-11T13:05:05.378Z,8.83
2023-02-11T13:07:38.984Z,9.60
2023-02-11T13:10:21.668Z,8.57
2023-02-11T13:12:51.442Z,8.50
2023-02-11T13:15:20.021Z,8.60
2023-02-11T13:17:57.305Z,6.70
2023-02-11T13:20:33.311Z,10.10
2023-02-11T13:23:10.733Z,8.57
2023-02-11T13:25:46.413Z,8.90
2023-02-11T13:28:35.502Z,8.93
2023-02-11T13:31:04.700Z,7.50
2023-02-11T13:33:34.552Z,9.63
2023-02-11T13:36:20.232Z,8.50
2023-02-11T13:39:19.211Z,10.47
2023-02-11T13:41:46.801Z,10.70
2023-02-11T13:44:27.314Z,10.77
2023-02-11T13:46:58.772Z,13.20
2023-02-11T13:49:31.735Z,10.27
2023-02-11T13:52:01.497Z,11.10
2023-02-11T13:54:33.537Z,10.23
2023-02-11T13:57:25.320Z,10.17
2023-02-11T13:59:54.385Z,12.37
2023-02-11T14:02:31.064Z,12.37
2023-02-11T14:05:27.556Z,8.83
2023-02-11T14:08:17.495Z,12.03
2023-02-11T14:10:52.874Z,11.30
2023-02-11T14:13:24.176Z,11.07
2023-02-11T14:16:04.611Z,10.07
2023-02-11T14:18:56.117Z,11.43
2023-02-11T14:21:32.041Z,10.20
2023-02-11T14:24:34.859Z,10.13
2023-02-11T14:27:07.378Z,8.70
2023-02-11T14:29:42.071Z,14.07
2023-02-11T14:32:17.529Z,10.00
2023-02-11T14:34:55.652Z,13.53
2023-02-11T14:37:38.039Z,11.80
2023-02-11T14:40:16.431Z,10.43
2023-02-11T14:42:44.677Z,12.20
2023-02-11T14:45:18.632Z,10.13
2023-02-11T14:47:51.089Z,9.73
2023-02-11T14:50:24.251Z,11.90
2023-02-11T14:52:53.200Z,10.43
2023-02-11T14:55:29.323Z,11.93
2023-02-11T14:58:12.434Z,9.47
2023-02-11T15:00:48.662Z,12.70
2023-02-11T15:03:40.834Z,13.23
2023-02-11T15:06:17.780Z,11.50
2023-02-11T15:08:48.614Z,10.20
2023-02-11T15:11:18.566Z,9.57
2023-02-11T15:13:46.881Z,15.73
2023-02-11T15:16:16.340Z,12.20
2023-02-11T15:18:47.985Z,11.17
2023-02-11T15:21:22.977Z,10.50
2023-02-11T15:23:59.514Z,9.97
2023-02-11T15:26:27.162Z,10.73
2023-02-11T15:28:54.426Z,13.63
2023-02-11T15:31:23.756Z,9.83
2023-02-11T15:33:51.763Z,10.87
2023-02-11T15:36:22.164Z,11.00
2023-02-11T15:39:17.104Z,12.10
2023-02-11T15:41:44.558Z,12.33
2023-02-11T15:44:27.776Z,12.10
2023-02-11T15:46:55.440Z,13.53
2023-02-11T15:49:24.362Z,14.23
2023-02-11T15:51:55.970Z,12.40
2023-02-11T15:54:26.485Z,13.60
2023-02-11T15:56:58.971Z,13.00
2023-02-11T15:59:29.383Z,13.40
2023-02-11T16:01:58.727Z,13.47
2023-02-11T16:04:27.925Z,14.33
2023-02-11T16:06:57.036Z,11.93
2023-02-11T16:09:33.363Z,14.60
2023-02-11T16:12:03.158Z,12.73
2023-02-11T16:14:33.629Z,13.60
2023-02-11T16:17:05.150Z,12.43
2023-02-11T16:19:34.136Z,14.30
2023-02-11T16:22:08.447Z,10.37
2023-02-11T16:24:37.522Z,13.20
2023-02-11T16:27:07.704Z,12.97
2023-02-11T16:29:36.914Z,11.60
2023-02-11T16:32:10.045Z,14.50
2023-02-11T16:34:37.503Z,13.63
2023-02-11T16:37:06.355Z,13.83
2023-02-11T16:39:34.032Z,13.20
2023-02-11T16:42:02.140Z,13.87
2023-02-11T16:44:29.795Z,11.33
2023-02-11T16:46:59.402Z,10.30
2023-02-11T16:49:28.995Z,13.90
2023-02-11T16:51:59.465Z,12.23
2023-02-11T16:54:29.447Z,12.53
2023-02-11T16:56:56.868Z,11.53
2023-02-11T16:59:24.139Z,12.03
2023-02-11T17:01:53.040Z,11.53
2023-02-11T17:04:23.522Z,11.93
2023-02-11T17:06:50.930Z,11.37
2023-02-11T17:09:20.762Z,12.60
2023-02-11T17:11:50.054Z,9.00
2023-02-11T17:14:17.893Z,12.10
2023-02-11T17:16:46.758Z,10.93
2023-02-11T17:19:17.058Z,11.53
2023-02-11T17:21:45.371Z,11.67
2023-02-11T17:24:13.194Z,12.43
2023-02-11T17:26:41.258Z,9.90
2023-02-11T17:29:14.081Z,12.20
2023-02-11T17:31:41.444Z,12.80
2023-02-11T17:34:08.801Z,10.43
2023-02-11T17:36:36.199Z,11.10
2023-02-11T17:39:07.705Z,12.60
2023-02-11T17:41:38.324Z,12.30
2023-02-11T17:44:06.621Z,10.13
2023-02-11T17:46:35.796Z,11.10
2023-02-11T17:49:04.333Z,12.97
2023-02-11T17:51:33.602Z,10.03
2023-02-11T17:54:02.770Z,10.17
2023-02-11T17:56:32.824Z,10.00
2023-02-11T17:59:00.143Z,9.47
2023-02-11T18:01:28.071Z,10.60
2023-02-11T18:03:56.713Z,10.10
2023-02-11T18:06:24.022Z,10.03
2023-02-11T18:08:51.303Z,10.03
2023-02-11T18:11:18.925Z,9.23
2023-02-11T18:13:46.214Z,9.87
2023-02-11T18:16:13.468Z,10.27
2023-02-11T18:18:40.732Z,10.97
2023-02-11T18:21:13.936Z,10.33
2023-02-11T18:23:41.880Z,10.83
2023-02-11T18:26:10.444Z,9.37
2023-02-11T18:28:38.324Z,11.63
2023-02-11T18:31:07.548Z,9.70
2023-02-11T18:33:35.823Z,9.87
2023-02-11T18:36:05.014Z,11.07
2023-02-11T18:38:33.802Z,9.83
2023-02-11T18:41:01.593Z,11.20
2023-02-11T18:43:28.932Z,13.20
2023-02-11T18:45:56.191Z,29.33
2023-02-11T18:48:24.274Z,18.03
2023-02-11T18:50:51.647Z,12.10
2023-02-11T18:53:19.092Z,10.90
2023-02-11T18:55:47.930Z,13.67
2023-02-11T18:58:15.260Z,11.90
2023-02-11T19:00:46.006Z,9.37
2023-02-11T19:03:13.616Z,10.80
2023-02-11T19:05:41.622Z,11.13
2023-02-11T19:08:08.939Z,13.87
2023-02-11T19:10:39.758Z,11.60
2023-02-11T19:13:08.530Z,13.80
2023-02-11T19:15:41.061Z,12.30
2023-02-11T19:18:08.337Z,15.03
2023-02-11T19:20:35.635Z,14.00
2023-02-11T19:23:02.832Z,12.57
2023-02-11T19:25:30.063Z,12.13
2023-02-11T19:27:57.504Z,14.70
2023-02-11T19:30:26.127Z,9.40
2023-02-11T19:32:53.353Z,11.97
2023-02-11T19:35:20.825Z,12.03
2023-02-11T19:37:48.033Z,11.43
2023-02-11T19:40:15.557Z,10.30
2023-02-11T19:42:42.823Z,9.00
2023-02-11T19:45:10.322Z,11.00
2023-02-11T19:47:38.994Z,11.80
2023-02-11T19:50:07.562Z,9.67
2023-02-11T19:52:37.287Z,12.07
2023-02-11T19:55:05.034Z,11.67
2023-02-11T19:57:32.403Z,8.97
2023-02-11T19:59:59.603Z,8.87
2023-02-11T20:02:27.011Z,10.90
2023-02-11T20:04:55.677Z,10.07
2023-02-11T20:07:22.947Z,11.37
2023-02-11T20:09:50.145Z,10.17
2023-02-11T20:12:17.633Z,11.10
2023-02-11T20:14:44.874Z,10.33
2023-02-11T20:17:12.125Z,10.03
2023-02-11T20:19:39.373Z,10.50
2023-02-11T20:22:07.937Z,10.17
2023-02-11T20:24:35.163Z,10.10
2023-02-11T20:27:02.447Z,11.40
2023-02-11T20:29:29.622Z,10.80
2023-02-11T20:31:56.934Z,12.90
2023-02-11T20:34:24.246Z,8.17
2023-02-11T20:36:52.068Z,10.63
2023-02-11T20:39:22.501Z,10.87
2023-02-11T20:41:50.542Z,10.33
2023-02-11T20:44:18.019Z,15.43
2023-02-11T20:46:45.722Z,12.70
2023-02-11T20:49:14.902Z,12.50
2023-02-11T20:51:42.612Z,10.83
2023-02-11T20:54:12.374Z,11.93
2023-02-11T20:56:41.124Z,10.90
2023-02-11T20:59:08.422Z,10.77
2023-02-11T21:01:38.565Z,10.10
2023-02-11T21:04:08.324Z,10.63
2023-02-11T21:06:38.351Z,11.03
2023-02-11T21:09:07.836Z,12.73
2023-02-11T21:11:35.482Z,11.37
2023-02-11T21:14:04.113Z,10.10
2023-02-11T21:16:32.360Z,10.50
2023-02-11T21:18:59.729Z,12.07
2023-02-11T21:21:26.946Z,11.63
2023-02-11T21:23:54.256Z,12.57
2023-02-11T21:26:22.046Z,12.13
2023-02-11T21:28:49.329Z,13.30
2023-02-11T21:31:22.718Z,12.27
2023-02-11T21:33:51.390Z,13.13
2023-02-11T21:36:18.953Z,12.37
2023-02-11T21:38:46.450Z,14.70
2023-02-11T21:41:13.652Z,12.00
2023-02-11T21:43:41.126Z,14.63
2023-02-11T21:46:09.912Z,11.67
2023-02-11T21:48:38.951Z,13.93
2023-02-11T21:51:07.892Z,12.20
2023-02-11T21:53:35.591Z,12.90
2023-02-11T21:56:05.798Z,11.23
2023-02-11T21:58:33.173Z,14.57
2023-02-11T22:01:00.589Z,14.80
2023-02-11T22:03:28.165Z,15.33
2023-02-11T22:05:56.970Z,15.33
2023-02-11T22:08:24.657Z,13.33
2023-02-11T22:10:51.924Z,13.83
2023-02-11T22:13:19.180Z,9.67
2023-02-11T22:15:57.619Z,18.47
2023-02-11T22:18:25.053Z,24.57
2023-02-11T22:20:59.624Z,14.07
2023-02-11T22:23:27.643Z,15.27
2023-02-11T22:25:55.238Z,15.67
2023-02-11T22:28:23.428Z,15.23
2023-02-11T22:30:54.928Z,13.87
2023-02-11T22:33:22.928Z,15.37
2023-02-11T22:35:59.641Z,15.30
2023-02-11T22:38:28.154Z,13.60
2023-02-11T22:40:55.592Z,15.40
2023-02-11T22:43:23.228Z,15.57
2023-02-11T22:45:51.097Z,16.17
2023-02-11T22:48:20.244Z,15.37
2023-02-11T22:50:48.656Z,15.90
2023-02-11T22:53:17.346Z,14.93
2023-02-11T22:55:44.628Z,14.17
2023-02-11T22:58:11.964Z,15.20
2023-02-11T23:00:41.057Z,13.93
2023-02-11T23:03:08.867Z,14.97
2023-02-11T23:05:40.056Z,16.30
2023-02-11T23:08:08.032Z,16.40
2023-02-11T23:10:37.902Z,17.07
2023-02-11T23:13:07.455Z,17.23
2023-02-11T23:15:38.342Z,16.60
2023-02-11T23:18:06.696Z,16.70
2023-02-11T23:20:34.410Z,14.07
2023-02-11T23:23:01.863Z,17.00
2023-02-11T23:25:29.418Z,15.17
2023-02-11T23:27:58.112Z,16.50
2023-02-11T23:30:25.611Z,17.60
2023-02-11T23:32:52.839Z,14.43
2023-02-11T23:35:20.099Z,16.07
2023-02-11T23:37:47.781Z,13.30
2023-02-11T23:40:15.692Z,15.37
2023-02-11T23:42:43.053Z,17.50
2023-02-11T23:45:12.107Z,15.60
2023-02-11T23:47:39.750Z,17.60
2023-02-11T23:50:08.519Z,17.43
2023-02-11T23:52:36.066Z,19.47
2023-02-11T23:55:03.963Z,15.63
2023-02-11T23:57:32.321Z,17.90
2023-02-11T23:59:59.555Z,16.53
